Time;durP1;ratioP1;P1;durP2;ratioP2;P2;SDS_P1;SDS_P2;PMS_P1;PMS_P2;Temp;Humidity;BMP_temperature;BMP_pressure;BME280_temperature;BME280_humidity;BME280_pressure;Samples;Min_cycle;Max_cycle;Signal;HPM_P1;HPM_P2
2022/07/17 00:01:19;;;;;;;0.35;0.35;;;15.70;91.50;;;;;;6164414;29;20291;-66
2022/07/17 00:04:25;;;;;;;0.50;0.50;;;15.70;91.30;;;;;;6168364;28;20262;-67
2022/07/17 00:07:31;;;;;;;0.50;0.50;;;15.70;91.80;;;;;;6188412;28;20270;-66
2022/07/17 00:10:40;;;;;;;0.50;0.50;;;15.60;91.70;;;;;;6187486;28;20289;-65
2022/07/17 00:13:48;;;;;;;0.40;0.40;;;15.60;91.70;;;;;;6187941;28;20298;-67
2022/07/17 00:16:53;;;;;;;0.60;0.60;;;15.60;91.70;;;;;;6188273;28;20273;-67
2022/07/17 00:19:59;;;;;;;0.50;0.50;;;15.60;91.60;;;;;;6188196;28;20297;-67
2022/07/17 00:23:05;;;;;;;0.60;0.60;;;15.50;91.50;;;;;;6188156;28;20274;-67
2022/07/17 00:26:10;;;;;;;0.70;0.70;;;15.50;92.40;;;;;;6188190;28;20278;-67
2022/07/17 00:29:17;;;;;;;0.50;0.50;;;15.50;91.80;;;;;;6188055;28;20623;-67
2022/07/17 00:32:23;;;;;;;0.50;0.50;;;15.50;92.70;;;;;;6187624;28;20277;-67
2022/07/17 00:35:28;;;;;;;0.60;0.60;;;15.50;93.10;;;;;;6188225;28;20430;-67
2022/07/17 00:38:34;;;;;;;0.50;0.50;;;15.50;93.40;;;;;;6187880;28;20363;-67
2022/07/17 00:41:39;;;;;;;0.65;0.60;;;15.50;92.90;;;;;;6187943;28;20277;-67
2022/07/17 00:44:46;;;;;;;0.40;0.40;;;15.60;92.40;;;;;;6187889;28;20278;-67
2022/07/17 00:47:56;;;;;;;0.70;0.70;;;15.50;92.10;;;;;;6187935;28;20454;-67
2022/07/17 00:51:01;;;;;;;0.50;0.50;;;15.50;91.90;;;;;;6187383;28;20295;-67
2022/07/17 00:54:09;;;;;;;0.63;0.63;;;15.50;91.70;;;;;;6187372;28;20314;-67
2022/07/17 00:57:16;;;;;;;0.40;0.40;;;15.50;91.60;;;;;;6187364;28;20279;-67
2022/07/17 01:00:24;;;;;;;0.60;0.60;;;15.50;91.60;;;;;;6187929;28;20568;-67
2022/07/17 01:03:30;;;;;;;1.13;0.60;;;15.60;91.90;;;;;;6187268;28;20273;-67
2022/07/17 01:06:35;;;;;;;0.50;0.50;;;15.60;92.10;;;;;;6166737;28;20267;-67
2022/07/17 01:09:41;;;;;;;0.50;0.50;;;15.70;92.00;;;;;;6168509;28;20299;-67
2022/07/17 01:12:48;;;;;;;0.45;0.43;;;15.70;91.80;;;;;;6168216;29;20274;-67
2022/07/17 01:15:55;;;;;;;1.08;0.70;;;15.60;91.80;;;;;;6168255;29;20443;-67
2022/07/17 01:19:03;;;;;;;0.40;0.40;;;15.60;91.50;;;;;;6169659;28;20294;-67
2022/07/17 01:22:09;;;;;;;0.65;0.65;;;15.60;91.40;;;;;;6168142;28;20281;-67
2022/07/17 01:25:15;;;;;;;0.55;0.55;;;15.60;91.00;;;;;;6168449;28;20574;-67
2022/07/17 01:28:21;;;;;;;0.60;0.60;;;15.60;91.30;;;;;;6168038;29;20294;-67
2022/07/17 01:31:27;;;;;;;0.70;0.70;;;15.60;91.30;;;;;;6167431;29;20597;-67
2022/07/17 01:34:32;;;;;;;0.60;0.60;;;15.60;91.10;;;;;;6167850;29;20274;-67
2022/07/17 01:37:40;;;;;;;0.50;0.50;;;15.60;90.80;;;;;;6167823;28;20278;-67
2022/07/17 01:40:46;;;;;;;0.40;0.40;;;15.60;90.40;;;;;;6167407;29;20278;-67
2022/07/17 01:43:51;;;;;;;0.50;0.50;;;15.60;90.30;;;;;;6167771;28;20270;-67
2022/07/17 01:46:57;;;;;;;1.55;0.40;;;15.60;90.40;;;;;;6167671;28;20274;-67
2022/07/17 01:50:03;;;;;;;0.50;0.50;;;15.60;91.30;;;;;;6166957;29;20582;-67
2022/07/17 01:53:13;;;;;;;0.50;0.50;;;15.50;91.20;;;;;;6167473;28;20367;-67
2022/07/17 01:56:18;;;;;;;0.50;0.50;;;15.50;91.20;;;;;;6166778;29;20274;-66
2022/07/17 01:59:24;;;;;;;0.50;0.50;;;15.50;91.30;;;;;;6166830;28;20279;-66
2022/07/17 02:02:30;;;;;;;0.57;0.57;;;15.60;92.50;;;;;;6166722;29;20278;-66
2022/07/17 02:05:36;;;;;;;0.50;0.50;;;15.50;92.80;;;;;;6181067;28;20266;-66
2022/07/17 02:08:43;;;;;;;1.55;0.47;;;15.50;93.10;;;;;;6190829;28;20278;-66
2022/07/17 02:11:49;;;;;;;0.82;0.50;;;15.40;92.60;;;;;;6190739;28;20289;-66
2022/07/17 02:14:56;;;;;;;0.60;0.60;;;15.30;92.30;;;;;;6190392;28;20306;-66
2022/07/17 02:18:01;;;;;;;0.60;0.60;;;15.30;92.10;;;;;;6188989;28;20274;-66
2022/07/17 02:21:06;;;;;;;0.52;0.52;;;15.40;92.60;;;;;;6190635;28;20282;-66
2022/07/17 02:24:13;;;;;;;0.35;0.35;;;15.40;92.30;;;;;;6190316;28;20576;-66
2022/07/17 02:27:18;;;;;;;0.50;0.50;;;15.30;92.10;;;;;;6189936;28;20273;-66
2022/07/17 02:30:23;;;;;;;0.43;0.43;;;15.30;91.80;;;;;;6189825;28;20270;-66
2022/07/17 02:33:29;;;;;;;0.40;0.40;;;15.40;91.90;;;;;;6190198;28;20311;-66
2022/07/17 02:36:34;;;;;;;0.60;0.60;;;15.40;91.50;;;;;;6189985;28;20501;-66
2022/07/17 02:39:52;;;;;;;0.50;0.50;;;15.40;91.70;;;;;;6190092;28;20273;-66
2022/07/17 02:42:58;;;;;;;0.60;0.60;;;15.40;91.70;;;;;;6190103;28;20275;-66
2022/07/17 02:46:03;;;;;;;0.45;0.45;;;15.40;92.50;;;;;;6189863;28;20279;-66
2022/07/17 02:49:10;;;;;;;1.48;0.60;;;15.50;91.70;;;;;;6189434;28;20273;-66
2022/07/17 02:52:15;;;;;;;0.50;0.50;;;15.40;91.30;;;;;;6189366;28;20298;-66
2022/07/17 02:55:22;;;;;;;0.52;0.52;;;15.40;91.30;;;;;;6189809;28;20452;-66
2022/07/17 02:58:27;;;;;;;0.32;0.32;;;15.50;91.60;;;;;;6189860;28;20439;-66
2022/07/17 03:01:33;;;;;;;0.40;0.40;;;15.30;91.20;;;;;;6189664;28;20278;-66
2022/07/17 03:04:38;;;;;;;0.50;0.50;;;15.30;91.70;;;;;;6183218;28;20262;-66
2022/07/17 03:07:43;;;;;;;0.60;0.60;;;15.40;91.60;;;;;;6165220;29;20572;-66
2022/07/17 03:10:50;;;;;;;0.50;0.50;;;15.40;91.60;;;;;;6165730;28;20270;-66
2022/07/17 03:13:55;;;;;;;0.40;0.40;;;15.40;92.20;;;;;;6165475;29;20310;-66
2022/07/17 03:17:01;;;;;;;1.55;0.30;;;15.40;93.20;;;;;;6165408;28;20274;-66
2022/07/17 03:20:09;;;;;;;0.43;0.43;;;15.40;92.00;;;;;;6165359;29;20562;-66
2022/07/17 03:23:14;;;;;;;0.40;0.40;;;15.40;92.10;;;;;;6165526;28;20416;-66
2022/07/17 03:26:21;;;;;;;0.40;0.40;;;15.40;92.20;;;;;;6164887;29;20270;-66
2022/07/17 03:29:26;;;;;;;0.35;0.35;;;15.30;91.80;;;;;;6165233;28;20274;-66
2022/07/17 03:32:32;;;;;;;0.50;0.50;;;15.40;91.90;;;;;;6165304;28;20465;-66
2022/07/17 03:35:37;;;;;;;1.25;0.40;;;15.40;92.00;;;;;;6164856;28;20266;-66
2022/07/17 03:38:42;;;;;;;0.50;0.50;;;15.40;92.30;;;;;;6164485;29;20275;-66
2022/07/17 03:41:49;;;;;;;0.60;0.60;;;15.30;91.70;;;;;;6164871;29;20277;-66
2022/07/17 03:44:55;;;;;;;0.40;0.40;;;15.40;92.20;;;;;;6164976;28;20278;-66
2022/07/17 03:47:59;;;;;;;0.60;0.60;;;15.40;92.20;;;;;;6164614;28;20471;-66
2022/07/17 03:51:05;;;;;;;1.10;0.50;;;15.40;92.30;;;;;;6164884;28;20318;-66
2022/07/17 03:54:11;;;;;;;1.17;0.40;;;15.30;92.60;;;;;;6164661;29;20293;-66
2022/07/17 03:57:19;;;;;;;0.47;0.47;;;15.30;92.00;;;;;;6164218;28;20274;-66
2022/07/17 04:00:24;;;;;;;0.40;0.40;;;15.30;91.90;;;;;;6164240;28;20275;-66
2022/07/17 04:03:29;;;;;;;0.43;0.43;;;15.30;92.00;;;;;;6164023;29;20483;-66
2022/07/17 04:06:34;;;;;;;0.40;0.40;;;15.20;92.20;;;;;;6185963;28;20417;-66
2022/07/17 04:09:40;;;;;;;0.40;0.40;;;15.20;91.90;;;;;;6188182;28;20273;-66
2022/07/17 04:12:47;;;;;;;0.60;0.60;;;15.20;91.70;;;;;;6188199;28;20293;-66
2022/07/17 04:15:55;;;;;;;4.13;0.55;;;15.30;92.30;;;;;;6187515;28;20321;-66
2022/07/17 04:19:00;;;;;;;1.52;0.50;;;15.30;92.00;;;;;;6187896;28;20294;-66
2022/07/17 04:22:06;;;;;;;0.40;0.40;;;15.30;92.60;;;;;;6187826;28;20278;-66
2022/07/17 04:25:13;;;;;;;1.75;0.55;;;15.20;91.80;;;;;;6187594;28;20302;-66
2022/07/17 04:28:35;;;;;;;0.40;0.40;;;15.20;91.80;;;;;;6187975;28;20277;-66
2022/07/17 04:31:41;;;;;;;0.40;0.40;;;15.30;91.80;;;;;;6187802;28;20273;-66
2022/07/17 04:34:46;;;;;;;0.43;0.43;;;15.30;91.50;;;;;;6187850;28;20394;-66
2022/07/17 04:37:51;;;;;;;0.50;0.50;;;15.30;91.90;;;;;;6187977;28;20279;-66
2022/07/17 04:40:57;;;;;;;2.83;0.50;;;15.30;91.90;;;;;;6187715;28;20277;-66
2022/07/17 04:44:04;;;;;;;0.50;0.50;;;15.40;92.30;;;;;;6192799;28;20277;-66
2022/07/17 04:47:10;;;;;;;0.40;0.40;;;15.50;92.30;;;;;;6192705;28;20278;-66
2022/07/17 04:50:15;;;;;;;0.90;0.60;;;15.50;92.70;;;;;;6192553;28;20430;-67
2022/07/17 04:53:20;;;;;;;0.60;0.60;;;15.40;92.40;;;;;;6192408;28;20297;-66
2022/07/17 04:56:28;;;;;;;0.50;0.50;;;15.50;92.10;;;;;;6192090;28;20273;-66
2022/07/17 04:59:36;;;;;;;1.20;0.70;;;15.60;92.00;;;;;;6191820;28;20274;-66
2022/07/17 05:02:42;;;;;;;0.50;0.50;;;15.60;92.50;;;;;;6191877;28;20460;-66
2022/07/17 05:05:48;;;;;;;0.40;0.40;;;15.60;91.90;;;;;;6176910;28;20505;-66
2022/07/17 05:08:53;;;;;;;0.47;0.47;;;15.60;92.10;;;;;;6168357;28;20459;-66
2022/07/17 05:11:58;;;;;;;0.50;0.50;;;15.40;91.10;;;;;;6167943;28;20493;-66
2022/07/17 05:15:06;;;;;;;0.45;0.45;;;15.50;91.40;;;;;;6167882;28;20310;-66
2022/07/17 05:18:15;;;;;;;0.30;0.30;;;15.50;91.90;;;;;;6167997;28;20274;-66
2022/07/17 05:21:20;;;;;;;0.50;0.50;;;15.50;91.70;;;;;;6167550;29;20295;-66
2022/07/17 05:24:25;;;;;;;0.40;0.40;;;15.40;91.90;;;;;;6167856;28;20274;-66
2022/07/17 05:27:30;;;;;;;1.13;0.40;;;15.50;91.90;;;;;;6167715;29;20274;-66
2022/07/17 05:30:37;;;;;;;0.20;0.20;;;15.60;91.90;;;;;;6167240;28;20278;-66
2022/07/17 05:33:42;;;;;;;2.03;0.50;;;15.50;91.50;;;;;;6167609;29;20297;-66
2022/07/17 05:36:49;;;;;;;0.40;0.40;;;15.60;91.40;;;;;;6167429;29;20446;-66
2022/07/17 05:39:54;;;;;;;0.60;0.60;;;15.80;91.90;;;;;;6167157;29;20575;-67
2022/07/17 05:42:59;;;;;;;0.47;0.47;;;15.90;91.70;;;;;;6167971;28;20274;-67
2022/07/17 05:46:06;;;;;;;0.40;0.40;;;16.10;91.50;;;;;;6167256;28;20351;-67
2022/07/17 05:49:12;;;;;;;0.55;0.55;;;16.20;91.10;;;;;;6167190;28;20274;-67
2022/07/17 05:52:18;;;;;;;0.38;0.38;;;16.40;91.10;;;;;;6167142;28;20274;-67
2022/07/17 05:55:23;;;;;;;0.40;0.40;;;16.60;91.30;;;;;;6167450;28;20294;-67
2022/07/17 05:58:28;;;;;;;1.08;0.50;;;16.90;91.40;;;;;;6167072;29;20278;-67
2022/07/17 06:01:35;;;;;;;0.60;0.60;;;16.90;90.50;;;;;;6167302;29;20274;-67
2022/07/17 06:04:40;;;;;;;0.50;0.50;;;16.70;90.00;;;;;;6173458;28;20262;-67
2022/07/17 06:07:46;;;;;;;0.60;0.60;;;16.90;89.90;;;;;;6191000;28;20472;-68
2022/07/17 06:10:51;;;;;;;0.50;0.50;;;16.90;88.70;;;;;;6190608;28;20273;-67
2022/07/17 06:13:57;;;;;;;0.40;0.40;;;16.90;88.50;;;;;;6190377;28;20305;-67
2022/07/17 06:17:03;;;;;;;0.50;0.50;;;17.10;89.00;;;;;;6190738;28;20355;-67
2022/07/17 06:20:12;;;;;;;1.70;0.30;;;17.00;88.70;;;;;;6190236;28;20553;-67
2022/07/17 06:23:17;;;;;;;0.45;0.40;;;17.00;88.90;;;;;;6190470;28;20561;-67
2022/07/17 06:26:23;;;;;;;0.60;0.60;;;17.10;89.70;;;;;;6190283;28;20278;-67
2022/07/17 06:29:29;;;;;;;0.50;0.50;;;17.20;88.40;;;;;;6190516;28;20274;-67
2022/07/17 06:32:35;;;;;;;0.40;0.40;;;17.30;88.40;;;;;;6190406;28;20277;-67
2022/07/17 06:35:40;;;;;;;0.45;0.45;;;17.30;89.10;;;;;;6190057;28;20581;-67
2022/07/17 06:38:50;;;;;;;0.50;0.50;;;17.40;89.50;;;;;;6189753;28;20278;-67
2022/07/17 06:41:55;;;;;;;0.30;0.30;;;17.60;88.50;;;;;;6189581;28;20557;-68
2022/07/17 06:45:00;;;;;;;0.50;0.50;;;17.40;88.60;;;;;;6190054;28;20510;-67
2022/07/17 06:48:08;;;;;;;0.50;0.50;;;17.20;88.10;;;;;;6189656;28;20450;-67
2022/07/17 06:51:14;;;;;;;0.50;0.50;;;17.30;88.80;;;;;;6189433;28;20273;-67
2022/07/17 06:54:23;;;;;;;1.17;0.60;;;17.60;90.70;;;;;;6189737;28;20329;-67
2022/07/17 06:57:28;;;;;;;0.40;0.40;;;17.90;88.50;;;;;;6189813;28;20278;-67
2022/07/17 07:00:34;;;;;;;0.40;0.40;;;17.80;88.00;;;;;;6189923;28;20274;-67
2022/07/17 07:03:40;;;;;;;0.98;0.35;;;17.90;88.80;;;;;;6189289;28;20273;-68
2022/07/17 07:06:45;;;;;;;3.03;0.50;;;17.90;88.90;;;;;;6166632;28;20436;-68
2022/07/17 07:09:51;;;;;;;0.40;0.40;;;18.10;90.70;;;;;;6165907;29;20274;-68
2022/07/17 07:12:56;;;;;;;0.50;0.50;;;18.10;89.50;;;;;;6165592;29;20274;-68
2022/07/17 07:16:02;;;;;;;0.40;0.40;;;18.30;87.90;;;;;;6165350;29;20294;-68
2022/07/17 07:19:08;;;;;;;0.57;0.57;;;18.50;88.50;;;;;;6165507;29;20451;-68
2022/07/17 07:22:14;;;;;;;0.50;0.50;;;18.50;87.80;;;;;;6165901;28;20275;-67
2022/07/17 07:25:20;;;;;;;0.50;0.50;;;18.50;89.60;;;;;;6164973;29;20283;-67
2022/07/17 07:28:27;;;;;;;0.60;0.60;;;18.40;89.40;;;;;;6165601;28;20274;-67
2022/07/17 07:31:32;;;;;;;0.40;0.40;;;18.50;90.30;;;;;;6165172;28;20279;-68
2022/07/17 07:34:39;;;;;;;0.40;0.40;;;18.50;90.10;;;;;;6164682;28;20274;-67
2022/07/17 07:37:45;;;;;;;0.50;0.50;;;18.50;88.80;;;;;;6164606;29;20279;-67
2022/07/17 07:40:50;;;;;;;0.40;0.40;;;18.70;88.40;;;;;;6164776;28;20274;-67
2022/07/17 07:43:55;;;;;;;0.40;0.40;;;18.40;87.50;;;;;;6164887;28;20274;-68
2022/07/17 07:47:00;;;;;;;0.40;0.40;;;18.40;87.20;;;;;;6164926;29;20278;-68
2022/07/17 07:50:08;;;;;;;0.40;0.40;;;18.30;87.50;;;;;;6164719;28;20274;-67
2022/07/17 07:53:19;;;;;;;0.52;0.52;;;18.40;86.40;;;;;;6164712;29;20274;-68
2022/07/17 07:56:24;;;;;;;0.38;0.38;;;18.50;86.10;;;;;;6164681;28;20294;-68
2022/07/17 07:59:32;;;;;;;0.50;0.50;;;18.60;87.80;;;;;;6164851;28;20278;-67
2022/07/17 08:02:38;;;;;;;0.50;0.50;;;18.50;87.70;;;;;;6164706;29;20274;-68
2022/07/17 08:05:45;;;;;;;3.53;0.60;;;18.70;86.10;;;;;;6178728;28;20269;-68
2022/07/17 08:08:50;;;;;;;0.50;0.50;;;18.80;85.60;;;;;;6187428;28;20274;-68
2022/07/17 08:11:55;;;;;;;1.25;0.60;;;18.60;86.20;;;;;;6188132;28;20269;-68
2022/07/17 08:15:00;;;;;;;0.60;0.60;;;18.80;88.10;;;;;;6187979;28;20301;-68
2022/07/17 08:18:06;;;;;;;0.60;0.60;;;18.80;85.50;;;;;;6187639;28;20274;-66
2022/07/17 08:21:16;;;;;;;0.40;0.40;;;18.90;88.00;;;;;;6188304;28;20273;-67
2022/07/17 08:24:21;;;;;;;0.45;0.45;;;18.90;84.20;;;;;;6187722;28;20274;-67
2022/07/17 08:27:27;;;;;;;0.60;0.60;;;19.00;87.50;;;;;;6187903;28;20277;-67
2022/07/17 08:30:34;;;;;;;0.52;0.52;;;19.00;85.80;;;;;;6187905;28;20274;-67
2022/07/17 08:33:40;;;;;;;0.45;0.45;;;18.90;83.40;;;;;;6187578;28;20271;-67
2022/07/17 08:36:47;;;;;;;0.40;0.40;;;19.00;85.30;;;;;;6187558;28;20293;-67
2022/07/17 08:39:52;;;;;;;0.57;0.57;;;19.00;84.60;;;;;;6187922;28;20277;-67
2022/07/17 08:43:01;;;;;;;1.25;0.50;;;19.00;84.40;;;;;;6188065;28;20274;-67
2022/07/17 08:46:06;;;;;;;0.50;0.50;;;19.00;83.40;;;;;;6187976;28;20273;-67
2022/07/17 08:49:13;;;;;;;0.40;0.40;;;18.80;83.10;;;;;;6187888;28;20274;-67
2022/07/17 08:52:19;;;;;;;0.40;0.40;;;18.80;81.10;;;;;;6187740;28;20439;-67
2022/07/17 08:55:25;;;;;;;0.60;0.50;;;18.70;80.20;;;;;;6187930;28;20278;-67
2022/07/17 08:58:31;;;;;;;1.98;0.77;;;18.70;80.60;;;;;;6187370;28;20569;-67
2022/07/17 09:01:36;;;;;;;1.45;0.30;;;18.70;80.30;;;;;;6187864;28;20430;-67
2022/07/17 09:04:41;;;;;;;0.40;0.40;;;18.60;81.20;;;;;;6181214;28;20262;-67
2022/07/17 09:07:48;;;;;;;0.40;0.40;;;18.60;80.20;;;;;;6163944;28;20282;-67
2022/07/17 09:10:54;;;;;;;0.40;0.40;;;18.60;78.90;;;;;;6163241;28;20500;-67
2022/07/17 09:14:00;;;;;;;1.65;0.40;;;18.60;78.30;;;;;;6163973;28;20363;-66
2022/07/17 09:17:07;;;;;;;2.38;0.45;;;18.30;77.40;;;;;;6162873;28;20586;-66
2022/07/17 09:20:14;;;;;;;0.40;0.40;;;18.40;78.40;;;;;;6163426;28;20278;-66
2022/07/17 09:23:22;;;;;;;0.40;0.40;;;18.40;78.80;;;;;;6163325;28;20275;-67
2022/07/17 09:26:28;;;;;;;1.75;0.40;;;18.20;75.90;;;;;;6162866;28;20278;-67
2022/07/17 09:29:33;;;;;;;0.40;0.40;;;18.30;78.40;;;;;;6167381;29;20274;-67
2022/07/17 09:32:41;;;;;;;1.35;0.40;;;18.50;79.20;;;;;;6167218;29;20458;-67
2022/07/17 09:35:52;;;;;;;0.40;0.40;;;18.50;80.00;;;;;;6167534;28;20278;-67
2022/07/17 09:38:59;;;;;;;0.38;0.38;;;18.50;82.40;;;;;;6167460;28;20298;-67
2022/07/17 09:42:04;;;;;;;0.30;0.30;;;18.50;81.40;;;;;;6167532;29;20291;-66
2022/07/17 09:45:11;;;;;;;0.40;0.40;;;18.60;84.00;;;;;;6167142;28;20275;-67
2022/07/17 09:48:18;;;;;;;0.40;0.40;;;18.60;82.10;;;;;;6167227;29;20314;-66
2022/07/17 09:51:25;;;;;;;1.10;0.60;;;18.60;82.90;;;;;;6167036;28;20283;-67
2022/07/17 09:54:33;;;;;;;0.60;0.60;;;18.60;84.00;;;;;;6167329;28;20536;-68
2022/07/17 09:57:42;;;;;;;0.50;0.50;;;18.40;83.70;;;;;;6166888;28;20366;-68
2022/07/17 10:00:48;;;;;;;0.50;0.50;;;18.50;83.30;;;;;;6166770;28;20274;-66
2022/07/17 10:03:54;;;;;;;0.57;0.57;;;18.50;83.40;;;;;;6166856;29;20274;-67
2022/07/17 10:06:59;;;;;;;0.40;0.40;;;18.50;82.40;;;;;;6190228;28;20469;-67
2022/07/17 10:10:08;;;;;;;0.60;0.60;;;18.60;81.00;;;;;;6190225;28;20278;-66
2022/07/17 10:13:15;;;;;;;0.50;0.50;;;18.60;80.50;;;;;;6190039;28;20278;-67
2022/07/17 10:16:26;;;;;;;0.50;0.50;;;18.60;81.50;;;;;;6190751;28;20274;-67
2022/07/17 10:19:33;;;;;;;0.80;0.80;;;18.70;79.20;;;;;;6190132;28;20297;-67
2022/07/17 10:22:45;;;;;;;0.40;0.40;;;18.60;79.00;;;;;;6190572;28;20294;-67
2022/07/17 10:26:00;;;;;;;0.47;0.47;;;18.60;77.80;;;;;;6190013;28;20270;-67
2022/07/17 10:29:09;;;;;;;0.60;0.60;;;18.70;76.60;;;;;;6190055;28;20576;-67
2022/07/17 10:32:17;;;;;;;0.40;0.40;;;18.70;79.10;;;;;;6190392;28;20270;-67
2022/07/17 10:35:23;;;;;;;4.35;3.97;;;18.70;77.60;;;;;;6189985;28;20273;-67
2022/07/17 10:38:29;;;;;;;1.00;1.00;;;18.80;77.10;;;;;;6189007;28;20337;-67
2022/07/17 10:41:35;;;;;;;0.50;0.50;;;18.90;78.10;;;;;;6189765;28;20274;-66
2022/07/17 10:44:42;;;;;;;0.50;0.50;;;18.90;76.90;;;;;;6189746;28;20283;-67
2022/07/17 10:47:57;;;;;;;0.52;0.52;;;18.90;78.00;;;;;;6189493;28;20294;-67
2022/07/17 10:51:02;;;;;;;0.50;0.50;;;19.00;76.50;;;;;;6189230;28;20273;-67
2022/07/17 10:54:08;;;;;;;0.45;0.45;;;19.00;76.50;;;;;;6190134;28;20274;-67
2022/07/17 10:57:15;;;;;;;0.73;0.73;;;19.00;76.00;;;;;;6189510;28;20475;-67
2022/07/17 11:00:21;;;;;;;0.88;0.88;;;19.00;76.10;;;;;;6189650;28;20557;-67
2022/07/17 11:03:26;;;;;;;0.50;0.50;;;19.10;76.80;;;;;;6189764;28;20274;-67
2022/07/17 11:06:34;;;;;;;0.50;0.50;;;19.20;78.60;;;;;;6167526;28;20267;-67
2022/07/17 11:09:48;;;;;;;0.50;0.50;;;19.20;77.00;;;;;;6164941;28;20274;-67
2022/07/17 11:12:56;;;;;;;1.65;0.50;;;19.30;78.60;;;;;;6165004;29;20275;-67
2022/07/17 11:16:02;;;;;;;0.40;0.40;;;19.30;75.70;;;;;;6165188;29;20275;-67
2022/07/17 11:19:09;;;;;;;2.20;0.63;;;19.20;75.70;;;;;;6164783;28;20298;-67
2022/07/17 11:22:15;;;;;;;1.10;0.40;;;19.30;77.40;;;;;;6165151;29;20522;-67
2022/07/17 11:25:20;;;;;;;0.40;0.40;;;19.50;77.50;;;;;;6165170;28;20274;-67
2022/07/17 11:28:35;;;;;;;0.40;0.40;;;19.60;77.30;;;;;;6165061;29;20380;-66
2022/07/17 11:31:40;;;;;;;1.45;0.40;;;19.60;77.20;;;;;;6164944;29;20570;-67
2022/07/17 11:34:45;;;;;;;1.30;1.30;;;19.70;77.80;;;;;;6164966;29;20274;-66
2022/07/17 11:37:51;;;;;;;0.93;0.60;;;19.70;78.20;;;;;;6164466;28;20275;-66
2022/07/17 11:40:57;;;;;;;1.75;0.55;;;19.70;76.10;;;;;;6164773;29;20270;-66
2022/07/17 11:44:10;;;;;;;0.98;0.43;;;19.60;75.60;;;;;;6164489;29;20469;-67
2022/07/17 11:47:22;;;;;;;0.45;0.45;;;19.60;74.80;;;;;;6164590;29;20270;-67
2022/07/17 11:50:28;;;;;;;0.50;0.50;;;19.70;76.00;;;;;;6164344;28;20456;-67
2022/07/17 11:53:35;;;;;;;0.57;0.57;;;19.70;76.90;;;;;;6164533;29;20424;-67
2022/07/17 11:56:41;;;;;;;0.40;0.40;;;19.90;76.90;;;;;;6164201;28;20490;-67
2022/07/17 11:59:49;;;;;;;0.40;0.40;;;19.90;76.00;;;;;;6164578;28;20290;-67
2022/07/17 12:02:59;;;;;;;0.60;0.60;;;19.70;74.80;;;;;;6164427;29;20271;-67
2022/07/17 12:06:05;;;;;;;0.60;0.60;;;19.80;76.10;;;;;;6164279;29;20266;-67
2022/07/17 12:09:11;;;;;;;0.57;0.57;;;19.90;77.60;;;;;;6163945;28;20287;-67
2022/07/17 12:12:21;;;;;;;0.45;0.45;;;19.80;74.60;;;;;;6163965;29;20274;-68
2022/07/17 12:15:39;;;;;;;0.80;0.50;;;19.90;75.60;;;;;;6183732;28;20297;-67
2022/07/17 12:18:44;;;;;;;0.60;0.60;;;20.10;75.40;;;;;;6187732;28;20293;-67
2022/07/17 12:21:57;;;;;;;0.43;0.40;;;20.00;74.30;;;;;;6187966;28;20274;-67
2022/07/17 12:25:02;;;;;;;2.80;2.60;;;20.20;76.20;;;;;;6170713;28;20573;-67
2022/07/17 12:28:07;;;;;;;0.80;0.80;;;20.20;75.60;;;;;;6188174;28;20278;-67
2022/07/17 12:31:15;;;;;;;0.50;0.50;;;20.20;73.90;;;;;;6187851;28;20346;-67
2022/07/17 12:34:20;;;;;;;4.03;0.93;;;20.20;73.90;;;;;;6187862;28;20278;-66
2022/07/17 12:37:25;;;;;;;1.50;1.50;;;20.40;74.30;;;;;;6187498;28;20273;-66
2022/07/17 12:40:31;;;;;;;0.80;0.80;;;20.40;71.60;;;;;;6187117;28;20480;-66
2022/07/17 12:43:36;;;;;;;0.80;0.80;;;20.40;72.20;;;;;;6187513;28;20274;-67
2022/07/17 12:46:43;;;;;;;0.60;0.60;;;20.60;72.70;;;;;;6187865;28;20294;-66
2022/07/17 12:49:48;;;;;;;0.55;0.55;;;20.80;72.20;;;;;;6187899;28;20306;-66
2022/07/17 12:52:54;;;;;;;0.60;0.60;;;21.00;73.30;;;;;;6187624;28;20273;-66
2022/07/17 12:56:06;;;;;;;0.98;0.50;;;21.10;73.60;;;;;;6187255;28;20278;-66
2022/07/17 12:59:12;;;;;;;0.40;0.40;;;21.10;71.30;;;;;;6187707;28;20297;-67
2022/07/17 13:02:19;;;;;;;0.40;0.40;;;21.10;73.10;;;;;;6188620;28;20273;-67
2022/07/17 13:05:25;;;;;;;1.08;0.40;;;21.30;71.60;;;;;;6179915;28;20270;-67
2022/07/17 13:08:30;;;;;;;0.60;0.60;;;21.30;69.70;;;;;;6168110;29;20293;-67
2022/07/17 13:11:36;;;;;;;0.73;0.40;;;21.50;71.80;;;;;;6168094;29;20287;-67
2022/07/17 13:14:41;;;;;;;1.35;0.70;;;21.50;68.80;;;;;;6168003;29;20306;-67
2022/07/17 13:17:48;;;;;;;0.50;0.50;;;21.50;68.90;;;;;;6168168;29;20294;-67
2022/07/17 13:20:53;;;;;;;1.85;1.85;;;21.60;69.90;;;;;;6168015;29;20298;-67
2022/07/17 13:24:06;;;;;;;0.70;0.70;;;21.80;69.60;;;;;;6167592;29;20558;-67
2022/07/17 13:27:11;;;;;;;0.50;0.50;;;21.70;69.50;;;;;;6167336;29;20295;-67
2022/07/17 13:30:17;;;;;;;0.82;0.50;;;21.80;68.80;;;;;;6167670;29;20278;-67
2022/07/17 13:33:24;;;;;;;2.05;0.60;;;21.80;72.10;;;;;;6167795;29;20549;-67
2022/07/17 13:36:29;;;;;;;0.60;0.60;;;21.70;70.20;;;;;;6167537;29;20279;-67
2022/07/17 13:39:35;;;;;;;0.75;0.60;;;21.70;68.00;;;;;;6167191;29;20298;-67
2022/07/17 13:42:40;;;;;;;2.45;0.68;;;22.20;70.00;;;;;;6167444;29;20266;-67
2022/07/17 13:45:45;;;;;;;1.10;0.52;;;23.50;64.80;;;;;;6167148;28;20274;-67
2022/07/17 13:48:52;;;;;;;0.60;0.60;;;24.00;61.20;;;;;;6167407;28;20429;-67
2022/07/17 13:51:57;;;;;;;1.35;0.60;;;24.30;60.90;;;;;;6166865;29;20282;-67
2022/07/17 13:55:03;;;;;;;0.50;0.50;;;23.50;62.00;;;;;;6166941;29;20274;-67
2022/07/17 13:58:28;;;;;;;0.40;0.40;;;23.50;63.30;;;;;;6167065;29;20275;-67
2022/07/17 14:01:34;;;;;;;0.40;0.40;;;24.60;59.50;;;;;;6167145;29;20290;-67
2022/07/17 14:04:40;;;;;;;3.35;0.63;;;24.80;58.60;;;;;;6167096;29;20263;-68
2022/07/17 14:07:46;;;;;;;0.40;0.40;;;24.90;58.70;;;;;;6166611;28;20266;-68
2022/07/17 14:10:51;;;;;;;1.15;0.47;;;24.40;59.50;;;;;;6166984;29;20278;-68
2022/07/17 14:13:56;;;;;;;0.40;0.40;;;23.70;57.80;;;;;;6174356;28;20305;-67
2022/07/17 14:17:02;;;;;;;1.20;1.17;;;23.50;59.10;;;;;;6190750;28;20274;-67
2022/07/17 14:20:11;;;;;;;3.60;0.70;;;23.30;58.50;;;;;;6190452;28;20294;-68
2022/07/17 14:23:17;;;;;;;1.30;0.50;;;23.10;57.80;;;;;;6190433;28;20278;-68
2022/07/17 14:26:22;;;;;;;0.57;0.50;;;23.00;58.20;;;;;;6190506;28;20273;-68
2022/07/17 14:29:28;;;;;;;0.60;0.60;;;22.90;58.00;;;;;;6190348;28;20274;-67
2022/07/17 14:32:34;;;;;;;0.50;0.50;;;22.80;58.90;;;;;;6190195;28;20277;-67
2022/07/17 14:35:40;;;;;;;0.70;0.70;;;22.70;58.80;;;;;;6190168;28;20273;-67
2022/07/17 14:38:46;;;;;;;0.82;0.82;;;22.60;59.00;;;;;;6189859;28;20273;-68
2022/07/17 14:41:51;;;;;;;1.00;1.00;;;22.70;60.70;;;;;;6190150;28;20289;-67
2022/07/17 14:44:57;;;;;;;2.08;0.88;;;22.80;59.80;;;;;;6189994;28;20278;-69
2022/07/17 14:48:02;;;;;;;0.90;0.90;;;23.00;59.70;;;;;;6189888;28;20342;-67
2022/07/17 14:51:09;;;;;;;0.85;0.70;;;23.70;57.30;;;;;;6189300;28;20581;-67
2022/07/17 14:54:14;;;;;;;0.60;0.60;;;24.30;57.00;;;;;;6189112;28;20274;-67
2022/07/17 14:57:20;;;;;;;0.95;0.60;;;24.30;55.90;;;;;;6189154;28;20273;-67
2022/07/17 15:00:25;;;;;;;0.65;0.65;;;24.50;56.40;;;;;;6189555;28;20284;-67
2022/07/17 15:03:30;;;;;;;2.13;0.50;;;23.90;56.60;;;;;;6189668;28;20278;-67
2022/07/17 15:06:40;;;;;;;0.50;0.50;;;23.60;57.00;;;;;;6168019;28;20266;-67
2022/07/17 15:09:46;;;;;;;0.40;0.40;;;23.40;58.00;;;;;;6165685;29;20279;-67
2022/07/17 15:12:51;;;;;;;0.85;0.70;;;23.10;58.80;;;;;;6165844;28;20278;-67
2022/07/17 15:15:56;;;;;;;1.08;0.40;;;22.90;58.60;;;;;;6165209;28;20298;-67
2022/07/17 15:19:02;;;;;;;1.90;0.50;;;22.70;59.30;;;;;;6164900;29;20274;-67
2022/07/17 15:22:09;;;;;;;0.70;0.70;;;22.70;59.20;;;;;;6165210;28;20598;-67
2022/07/17 15:25:14;;;;;;;1.38;1.27;;;22.60;59.70;;;;;;6164500;28;20274;-67
2022/07/17 15:28:19;;;;;;;0.93;0.80;;;22.60;59.30;;;;;;6165198;29;20279;-67
2022/07/17 15:31:24;;;;;;;0.80;0.80;;;22.50;61.60;;;;;;6164790;29;20270;-67
2022/07/17 15:34:30;;;;;;;1.50;1.50;;;22.60;61.20;;;;;;6164887;28;20274;-67
2022/07/17 15:37:36;;;;;;;3.30;3.20;;;22.70;59.40;;;;;;6165150;29;20291;-67
2022/07/17 15:40:41;;;;;;;2.10;2.10;;;22.80;59.10;;;;;;6165097;29;20274;-67
2022/07/17 15:43:47;;;;;;;2.20;2.10;;;22.70;61.20;;;;;;6164552;29;20477;-67
2022/07/17 15:46:53;;;;;;;1.55;1.55;;;22.60;63.10;;;;;;6164951;29;20274;-67
2022/07/17 15:49:58;;;;;;;0.95;0.95;;;22.60;61.80;;;;;;6164898;28;20278;-67
2022/07/17 15:53:04;;;;;;;0.80;0.80;;;22.50;60.50;;;;;;6164719;29;20278;-67
2022/07/17 15:56:11;;;;;;;0.80;0.80;;;22.40;59.80;;;;;;6164776;28;20558;-67
2022/07/17 15:59:17;;;;;;;2.00;1.90;;;22.40;60.30;;;;;;6164828;29;20574;-67
2022/07/17 16:02:24;;;;;;;0.80;0.80;;;22.30;61.60;;;;;;6164405;28;20293;-68
2022/07/17 16:05:29;;;;;;;0.75;0.75;;;22.30;60.00;;;;;;6163854;29;20274;-68
2022/07/17 16:08:35;;;;;;;1.00;1.00;;;22.50;60.00;;;;;;6164591;29;20274;-67
2022/07/17 16:11:41;;;;;;;1.40;0.80;;;22.60;59.10;;;;;;6164256;29;20278;-68